This is the latest recevied weather packets stored in our database for station/object N4ZIQ. If no packets are shown the sender has not sent any weather packets the latest 1 day(s).
| Time | Temp. | Humidity | Pressure | Rain* | Wind** | Luminosity | Snow |
|---|---|---|---|---|---|---|---|
| 1778087445 | 31.67° C | 47% | 1017.2 hPa | 0 mm | - | 747 W/m² | - |
| 1778087145 | 31.67° C | 46% | 1017.2 hPa | 0 mm | - | 851 W/m² | - |
| 1778086855 | 31.67° C | 49% | 1017.2 hPa | 0 mm | - | 851 W/m² | - |
| 1778084150 | 30.56° C | 53% | 1017.4 hPa | 0 mm | - | 673 W/m² | - |
| 1778083252 | 30.56° C | 53% | 1017.4 hPa | 0 mm | - | 851 W/m² | - |
| 1778082643 | 30° C | 57% | 1017.5 hPa | 0 mm | - | 777 W/m² | - |
| 1778081743 | 30° C | 56% | 1017.5 hPa | 0 mm | - | 807 W/m² | - |
| 1778080554 | 29.44° C | 61% | 1017.7 hPa | 0 mm | - | 766 W/m² | - |
| 1778079655 | 28.89° C | 63% | 1017.7 hPa | 0 mm | - | 752 W/m² | - |
| 1778078143 | 27.78° C | 68% | 1017.8 hPa | 0 mm | - | 557 W/m² | - |
| 1778077544 | 27.22° C | 70% | 1017.8 hPa | 0 mm | - | 624 W/m² | - |
| 1778076343 | 26.67° C | 73% | 1017.9 hPa | 0 mm | - | 577 W/m² | - |
| 1778076061 | 26.67° C | 75% | 1017.8 hPa | 0 mm | - | 434 W/m² | - |
| 1778074546 | 25.56° C | 81% | 1017.8 hPa | 0 mm | - | 373 W/m² | - |
| 1778073946 | 25° C | 82% | 1017.7 hPa | 0 mm | - | 362 W/m² | - |
| 1778073044 | 24.44° C | 85% | 1017.5 hPa | 0 mm | - | 348 W/m² | - |
| 1778072746 | 23.89° C | 85% | 1017.5 hPa | 0 mm | - | 325 W/m² | - |
| 1778072454 | 23.33° C | 86% | 1017.4 hPa | 0 mm | - | 320 W/m² | - |
| 1778072146 | 23.33° C | 87% | 1017.3 hPa | 0 mm | - | 292 W/m² | - |
| 1778070045 | 19.44° C | 95% | 1017.2 hPa | 0 mm | - | 148 W/m² | - |
| 1778069764 | 18.89° C | 95% | 1017.3 hPa | 0 mm | - | 151 W/m² | - |
| 1778069145 | 17.78° C | 95% | 1017.1 hPa | 0 mm | - | 125 W/m² | - |
| 1778068868 | 17.78° C | 95% | 1017 hPa | 0 mm | - | 123 W/m² | - |
| 1778067969 | 16.11° C | 95% | 1017 hPa | 0 mm | - | 90 W/m² | - |
| 1778067645 | 15.56° C | 95% | 1017 hPa | 0 mm | - | 81 W/m² | - |
* Rain latest hour (hover to see other rain measurements)
** Current wind speed in m/s (hover to see current wind gust speed)